sensor_id;sensor_type;location;lat;lon;timestamp;temperature;humidity
43089;DHT22;28709;52.030;5.652;2022-08-21T00:02:21;16.70;99.90
43089;DHT22;28709;52.030;5.652;2022-08-21T00:04:47;16.60;99.90
43089;DHT22;28709;52.030;5.652;2022-08-21T00:07:13;16.70;99.90
43089;DHT22;28709;52.030;5.652;2022-08-21T00:09:39;16.60;99.90
43089;DHT22;28709;52.030;5.652;2022-08-21T00:12:06;16.60;99.90
43089;DHT22;28709;52.030;5.652;2022-08-21T00:14:32;16.60;99.90
43089;DHT22;28709;52.030;5.652;2022-08-21T00:16:58;16.60;99.90
43089;DHT22;28709;52.030;5.652;2022-08-21T00:19:24;16.60;99.90
43089;DHT22;28709;52.030;5.652;2022-08-21T00:21:54;16.50;99.90
43089;DHT22;28709;52.030;5.652;2022-08-21T00:24:21;16.50;99.90
43089;DHT22;28709;52.030;5.652;2022-08-21T00:26:48;16.50;99.90
43089;DHT22;28709;52.030;5.652;2022-08-21T00:29:14;16.50;99.90
43089;DHT22;28709;52.030;5.652;2022-08-21T00:31:41;16.40;99.90
43089;DHT22;28709;52.030;5.652;2022-08-21T00:34:07;16.40;99.90
43089;DHT22;28709;52.030;5.652;2022-08-21T00:36:33;16.40;99.90
43089;DHT22;28709;52.030;5.652;2022-08-21T00:38:59;16.40;99.90
43089;DHT22;28709;52.030;5.652;2022-08-21T00:41:25;16.40;99.90
43089;DHT22;28709;52.030;5.652;2022-08-21T00:43:52;16.40;99.90
43089;DHT22;28709;52.030;5.652;2022-08-21T00:46:18;16.40;99.90
43089;DHT22;28709;52.030;5.652;2022-08-21T00:48:44;16.40;99.90
43089;DHT22;28709;52.030;5.652;2022-08-21T00:51:17;16.30;99.90
43089;DHT22;28709;52.030;5.652;2022-08-21T00:53:52;16.30;99.90
43089;DHT22;28709;52.030;5.652;2022-08-21T00:56:19;16.30;99.90
43089;DHT22;28709;52.030;5.652;2022-08-21T00:58:46;16.20;99.90
43089;DHT22;28709;52.030;5.652;2022-08-21T01:01:13;16.20;99.90
43089;DHT22;28709;52.030;5.652;2022-08-21T01:03:40;16.20;99.90
43089;DHT22;28709;52.030;5.652;2022-08-21T01:06:07;16.20;99.90
43089;DHT22;28709;52.030;5.652;2022-08-21T01:08:34;16.20;99.90
43089;DHT22;28709;52.030;5.652;2022-08-21T01:11:01;16.10;99.90
43089;DHT22;28709;52.030;5.652;2022-08-21T01:13:29;16.10;99.90
43089;DHT22;28709;52.030;5.652;2022-08-21T01:15:57;16.10;99.90
43089;DHT22;28709;52.030;5.652;2022-08-21T01:18:26;16.10;99.90
43089;DHT22;28709;52.030;5.652;2022-08-21T01:21:11;16.10;99.90
43089;DHT22;28709;52.030;5.652;2022-08-21T01:23:39;16.10;99.90
43089;DHT22;28709;52.030;5.652;2022-08-21T01:26:06;16.00;99.90
43089;DHT22;28709;52.030;5.652;2022-08-21T01:28:58;16.00;99.90
43089;DHT22;28709;52.030;5.652;2022-08-21T01:31:24;16.00;99.90
43089;DHT22;28709;52.030;5.652;2022-08-21T01:33:51;16.00;99.90
43089;DHT22;28709;52.030;5.652;2022-08-21T01:36:17;16.00;99.90
43089;DHT22;28709;52.030;5.652;2022-08-21T01:38:42;16.00;99.90
43089;DHT22;28709;52.030;5.652;2022-08-21T01:41:08;15.90;99.90
43089;DHT22;28709;52.030;5.652;2022-08-21T01:43:34;15.90;99.90
43089;DHT22;28709;52.030;5.652;2022-08-21T01:45:59;15.90;99.90
43089;DHT22;28709;52.030;5.652;2022-08-21T01:48:25;15.90;99.90
43089;DHT22;28709;52.030;5.652;2022-08-21T01:50:50;15.90;99.90
43089;DHT22;28709;52.030;5.652;2022-08-21T01:53:16;15.90;99.90
43089;DHT22;28709;52.030;5.652;2022-08-21T01:55:43;15.90;99.90
43089;DHT22;28709;52.030;5.652;2022-08-21T01:58:08;15.90;99.90
43089;DHT22;28709;52.030;5.652;2022-08-21T02:00:34;15.90;99.90
43089;DHT22;28709;52.030;5.652;2022-08-21T02:03:00;15.90;99.90
43089;DHT22;28709;52.030;5.652;2022-08-21T02:05:25;15.90;99.90
43089;DHT22;28709;52.030;5.652;2022-08-21T02:07:53;15.90;99.90
43089;DHT22;28709;52.030;5.652;2022-08-21T02:10:26;15.80;99.90
43089;DHT22;28709;52.030;5.652;2022-08-21T02:12:53;15.80;99.90
43089;DHT22;28709;52.030;5.652;2022-08-21T02:15:19;15.80;99.90
43089;DHT22;28709;52.030;5.652;2022-08-21T02:17:53;15.80;99.90
43089;DHT22;28709;52.030;5.652;2022-08-21T02:20:22;15.80;99.90
43089;DHT22;28709;52.030;5.652;2022-08-21T02:22:48;15.80;99.90
43089;DHT22;28709;52.030;5.652;2022-08-21T02:25:15;15.70;99.90
43089;DHT22;28709;52.030;5.652;2022-08-21T02:27:42;15.80;99.90
43089;DHT22;28709;52.030;5.652;2022-08-21T02:30:12;15.70;99.90
43089;DHT22;28709;52.030;5.652;2022-08-21T02:32:38;15.70;99.90
43089;DHT22;28709;52.030;5.652;2022-08-21T02:35:05;15.70;99.90
43089;DHT22;28709;52.030;5.652;2022-08-21T02:37:30;15.70;99.90
43089;DHT22;28709;52.030;5.652;2022-08-21T02:39:56;15.70;99.90
43089;DHT22;28709;52.030;5.652;2022-08-21T02:42:22;15.70;99.90
43089;DHT22;28709;52.030;5.652;2022-08-21T02:44:47;15.60;99.90
43089;DHT22;28709;52.030;5.652;2022-08-21T02:47:14;15.60;99.90
43089;DHT22;28709;52.030;5.652;2022-08-21T02:49:39;15.50;99.90
43089;DHT22;28709;52.030;5.652;2022-08-21T02:52:05;15.50;99.90
43089;DHT22;28709;52.030;5.652;2022-08-21T02:54:31;15.50;99.90
43089;DHT22;28709;52.030;5.652;2022-08-21T02:56:57;15.50;99.90
43089;DHT22;28709;52.030;5.652;2022-08-21T02:59:23;15.50;99.90
43089;DHT22;28709;52.030;5.652;2022-08-21T03:01:49;15.50;99.90
43089;DHT22;28709;52.030;5.652;2022-08-21T03:04:14;15.50;99.90
43089;DHT22;28709;52.030;5.652;2022-08-21T03:06:40;15.50;99.90
43089;DHT22;28709;52.030;5.652;2022-08-21T03:09:06;15.50;99.90
43089;DHT22;28709;52.030;5.652;2022-08-21T03:11:31;15.50;99.90
43089;DHT22;28709;52.030;5.652;2022-08-21T03:13:57;15.50;99.90
43089;DHT22;28709;52.030;5.652;2022-08-21T03:16:23;15.40;99.90
43089;DHT22;28709;52.030;5.652;2022-08-21T03:18:48;15.50;99.90
43089;DHT22;28709;52.030;5.652;2022-08-21T03:21:14;15.40;99.90
43089;DHT22;28709;52.030;5.652;2022-08-21T03:23:39;15.40;99.90
43089;DHT22;28709;52.030;5.652;2022-08-21T03:26:07;15.40;99.90
43089;DHT22;28709;52.030;5.652;2022-08-21T03:28:33;15.40;99.90
43089;DHT22;28709;52.030;5.652;2022-08-21T03:30:58;15.40;99.90
43089;DHT22;28709;52.030;5.652;2022-08-21T03:33:24;15.40;99.90
43089;DHT22;28709;52.030;5.652;2022-08-21T03:36:02;15.30;99.90
43089;DHT22;28709;52.030;5.652;2022-08-21T03:38:31;15.30;99.90
43089;DHT22;28709;52.030;5.652;2022-08-21T03:40:56;15.30;99.90
43089;DHT22;28709;52.030;5.652;2022-08-21T03:43:22;15.30;99.90
43089;DHT22;28709;52.030;5.652;2022-08-21T03:45:48;15.30;99.90
43089;DHT22;28709;52.030;5.652;2022-08-21T03:48:13;15.30;99.90
43089;DHT22;28709;52.030;5.652;2022-08-21T03:50:42;15.20;99.90
43089;DHT22;28709;52.030;5.652;2022-08-21T03:53:10;15.20;99.90
43089;DHT22;28709;52.030;5.652;2022-08-21T03:55:35;15.20;99.90
43089;DHT22;28709;52.030;5.652;2022-08-21T03:58:02;15.20;99.90
43089;DHT22;28709;52.030;5.652;2022-08-21T04:00:28;15.20;99.90
43089;DHT22;28709;52.030;5.652;2022-08-21T04:02:54;15.20;99.90
43089;DHT22;28709;52.030;5.652;2022-08-21T04:05:20;15.20;99.90
43089;DHT22;28709;52.030;5.652;2022-08-21T04:08:00;15.20;99.90
43089;DHT22;28709;52.030;5.652;2022-08-21T04:10:28;15.20;99.90
43089;DHT22;28709;52.030;5.652;2022-08-21T04:12:54;15.20;99.90
43089;DHT22;28709;52.030;5.652;2022-08-21T04:15:22;15.20;99.90
43089;DHT22;28709;52.030;5.652;2022-08-21T04:17:48;15.20;99.90
43089;DHT22;28709;52.030;5.652;2022-08-21T04:20:14;15.20;99.90
43089;DHT22;28709;52.030;5.652;2022-08-21T04:22:40;15.20;99.90
43089;DHT22;28709;52.030;5.652;2022-08-21T04:25:06;15.20;99.90
43089;DHT22;28709;52.030;5.652;2022-08-21T04:27:33;15.10;99.90
43089;DHT22;28709;52.030;5.652;2022-08-21T04:29:59;15.10;99.90
43089;DHT22;28709;52.030;5.652;2022-08-21T04:32:25;15.10;99.90
43089;DHT22;28709;52.030;5.652;2022-08-21T04:34:56;15.20;99.90
43089;DHT22;28709;52.030;5.652;2022-08-21T04:37:22;15.10;99.90
43089;DHT22;28709;52.030;5.652;2022-08-21T04:39:48;15.20;99.90
43089;DHT22;28709;52.030;5.652;2022-08-21T04:42:13;15.10;99.90
43089;DHT22;28709;52.030;5.652;2022-08-21T04:44:39;15.10;99.90
43089;DHT22;28709;52.030;5.652;2022-08-21T04:47:06;15.10;99.90
43089;DHT22;28709;52.030;5.652;2022-08-21T04:49:32;15.10;99.90
43089;DHT22;28709;52.030;5.652;2022-08-21T04:51:58;15.10;99.90
43089;DHT22;28709;52.030;5.652;2022-08-21T04:54:24;15.10;99.90
43089;DHT22;28709;52.030;5.652;2022-08-21T04:56:57;15.10;99.90
43089;DHT22;28709;52.030;5.652;2022-08-21T04:59:33;15.10;99.90
43089;DHT22;28709;52.030;5.652;2022-08-21T05:02:01;15.10;99.90
43089;DHT22;28709;52.030;5.652;2022-08-21T05:04:29;15.00;99.90
43089;DHT22;28709;52.030;5.652;2022-08-21T05:06:58;15.00;99.90
43089;DHT22;28709;52.030;5.652;2022-08-21T05:09:25;15.00;99.90
43089;DHT22;28709;52.030;5.652;2022-08-21T05:11:52;15.00;99.90
43089;DHT22;28709;52.030;5.652;2022-08-21T05:14:18;15.00;99.90
43089;DHT22;28709;52.030;5.652;2022-08-21T05:16:45;15.00;99.90
43089;DHT22;28709;52.030;5.652;2022-08-21T05:19:11;15.10;99.90
43089;DHT22;28709;52.030;5.652;2022-08-21T05:21:40;15.10;99.90
43089;DHT22;28709;52.030;5.652;2022-08-21T05:24:06;15.10;99.90
43089;DHT22;28709;52.030;5.652;2022-08-21T05:26:32;15.10;99.90
43089;DHT22;28709;52.030;5.652;2022-08-21T05:28:58;15.10;99.90
43089;DHT22;28709;52.030;5.652;2022-08-21T05:31:24;15.00;99.90
43089;DHT22;28709;52.030;5.652;2022-08-21T05:33:50;15.00;99.90
43089;DHT22;28709;52.030;5.652;2022-08-21T05:36:17;15.00;99.90
43089;DHT22;28709;52.030;5.652;2022-08-21T05:38:43;15.10;99.90
43089;DHT22;28709;52.030;5.652;2022-08-21T05:41:09;15.10;99.90
43089;DHT22;28709;52.030;5.652;2022-08-21T05:43:35;15.10;99.90
43089;DHT22;28709;52.030;5.652;2022-08-21T05:46:05;15.20;99.90
43089;DHT22;28709;52.030;5.652;2022-08-21T05:48:32;15.20;99.90
43089;DHT22;28709;52.030;5.652;2022-08-21T05:51:03;15.30;99.90
43089;DHT22;28709;52.030;5.652;2022-08-21T05:53:29;15.30;99.90
43089;DHT22;28709;52.030;5.652;2022-08-21T05:55:55;15.40;99.90
43089;DHT22;28709;52.030;5.652;2022-08-21T05:58:21;15.40;99.90
43089;DHT22;28709;52.030;5.652;2022-08-21T06:00:49;15.40;99.90
43089;DHT22;28709;52.030;5.652;2022-08-21T06:03:25;15.50;99.90
43089;DHT22;28709;52.030;5.652;2022-08-21T06:05:50;15.60;99.90
43089;DHT22;28709;52.030;5.652;2022-08-21T06:08:17;15.70;99.90
43089;DHT22;28709;52.030;5.652;2022-08-21T06:10:44;15.70;99.90
43089;DHT22;28709;52.030;5.652;2022-08-21T06:13:10;15.80;99.90
43089;DHT22;28709;52.030;5.652;2022-08-21T06:15:37;15.90;99.90
43089;DHT22;28709;52.030;5.652;2022-08-21T06:18:03;16.00;99.90
43089;DHT22;28709;52.030;5.652;2022-08-21T06:20:29;16.10;99.90
43089;DHT22;28709;52.030;5.652;2022-08-21T06:22:54;16.20;99.90
43089;DHT22;28709;52.030;5.652;2022-08-21T06:25:20;16.20;99.90
43089;DHT22;28709;52.030;5.652;2022-08-21T06:27:46;16.30;99.90
43089;DHT22;28709;52.030;5.652;2022-08-21T06:30:12;16.40;99.90
43089;DHT22;28709;52.030;5.652;2022-08-21T06:32:38;16.50;99.90
43089;DHT22;28709;52.030;5.652;2022-08-21T06:35:05;16.60;99.90
43089;DHT22;28709;52.030;5.652;2022-08-21T06:37:31;16.70;99.90
43089;DHT22;28709;52.030;5.652;2022-08-21T06:39:57;16.80;99.90
43089;DHT22;28709;52.030;5.652;2022-08-21T06:42:23;17.00;99.90
43089;DHT22;28709;52.030;5.652;2022-08-21T06:44:49;17.10;99.90
43089;DHT22;28709;52.030;5.652;2022-08-21T06:47:15;17.30;99.90
43089;DHT22;28709;52.030;5.652;2022-08-21T06:49:40;17.40;99.90
43089;DHT22;28709;52.030;5.652;2022-08-21T06:52:11;17.60;99.90
43089;DHT22;28709;52.030;5.652;2022-08-21T06:54:38;17.80;99.90
43089;DHT22;28709;52.030;5.652;2022-08-21T06:57:05;17.90;99.90
43089;DHT22;28709;52.030;5.652;2022-08-21T06:59:31;18.00;99.90
43089;DHT22;28709;52.030;5.652;2022-08-21T07:01:58;18.20;99.90
43089;DHT22;28709;52.030;5.652;2022-08-21T07:04:24;18.40;99.90
43089;DHT22;28709;52.030;5.652;2022-08-21T07:06:50;18.50;99.90
43089;DHT22;28709;52.030;5.652;2022-08-21T07:09:16;18.80;99.90
43089;DHT22;28709;52.030;5.652;2022-08-21T07:11:42;18.90;99.90
43089;DHT22;28709;52.030;5.652;2022-08-21T07:14:07;19.20;99.90
43089;DHT22;28709;52.030;5.652;2022-08-21T07:16:33;19.30;99.90
43089;DHT22;28709;52.030;5.652;2022-08-21T07:18:59;19.50;99.90
43089;DHT22;28709;52.030;5.652;2022-08-21T07:21:24;19.70;99.90
43089;DHT22;28709;52.030;5.652;2022-08-21T07:23:51;19.80;99.90
43089;DHT22;28709;52.030;5.652;2022-08-21T07:26:19;19.90;99.90
43089;DHT22;28709;52.030;5.652;2022-08-21T07:28:46;20.10;99.90
43089;DHT22;28709;52.030;5.652;2022-08-21T07:31:15;20.20;99.90
43089;DHT22;28709;52.030;5.652;2022-08-21T07:33:41;20.20;99.90
43089;DHT22;28709;52.030;5.652;2022-08-21T07:36:08;20.40;99.90
43089;DHT22;28709;52.030;5.652;2022-08-21T07:38:34;20.50;99.90
43089;DHT22;28709;52.030;5.652;2022-08-21T07:41:01;20.60;99.90
43089;DHT22;28709;52.030;5.652;2022-08-21T07:43:29;20.70;99.90
43089;DHT22;28709;52.030;5.652;2022-08-21T07:45:55;20.80;99.90
43089;DHT22;28709;52.030;5.652;2022-08-21T07:48:21;20.90;99.90
43089;DHT22;28709;52.030;5.652;2022-08-21T07:50:48;21.00;99.90
43089;DHT22;28709;52.030;5.652;2022-08-21T07:53:14;21.20;99.90
43089;DHT22;28709;52.030;5.652;2022-08-21T07:55:40;21.30;99.90
43089;DHT22;28709;52.030;5.652;2022-08-21T07:58:06;21.40;99.90
43089;DHT22;28709;52.030;5.652;2022-08-21T08:00:32;21.60;99.90
43089;DHT22;28709;52.030;5.652;2022-08-21T08:02:58;21.60;99.90
43089;DHT22;28709;52.030;5.652;2022-08-21T08:05:27;21.60;99.90
43089;DHT22;28709;52.030;5.652;2022-08-21T08:07:53;21.60;99.90
43089;DHT22;28709;52.030;5.652;2022-08-21T08:10:19;21.60;99.90
43089;DHT22;28709;52.030;5.652;2022-08-21T08:12:46;21.80;99.90
43089;DHT22;28709;52.030;5.652;2022-08-21T08:15:16;22.00;99.90
43089;DHT22;28709;52.030;5.652;2022-08-21T08:17:42;22.30;99.90
43089;DHT22;28709;52.030;5.652;2022-08-21T08:20:10;22.40;99.90
43089;DHT22;28709;52.030;5.652;2022-08-21T08:22:38;22.40;99.90
43089;DHT22;28709;52.030;5.652;2022-08-21T08:25:05;22.40;99.90
43089;DHT22;28709;52.030;5.652;2022-08-21T08:27:32;22.40;99.90
43089;DHT22;28709;52.030;5.652;2022-08-21T08:29:58;22.50;99.90
43089;DHT22;28709;52.030;5.652;2022-08-21T08:32:24;22.50;99.90
43089;DHT22;28709;52.030;5.652;2022-08-21T08:34:50;22.60;99.90
43089;DHT22;28709;52.030;5.652;2022-08-21T08:37:17;22.70;99.90
43089;DHT22;28709;52.030;5.652;2022-08-21T08:39:44;22.70;99.90
43089;DHT22;28709;52.030;5.652;2022-08-21T08:42:14;22.90;99.90
43089;DHT22;28709;52.030;5.652;2022-08-21T08:44:42;23.10;99.90
43089;DHT22;28709;52.030;5.652;2022-08-21T08:47:13;23.40;99.90
43089;DHT22;28709;52.030;5.652;2022-08-21T08:52:32;23.60;99.90
43089;DHT22;28709;52.030;5.652;2022-08-21T08:57:34;23.30;99.90
43089;DHT22;28709;52.030;5.652;2022-08-21T09:00:06;23.30;99.90
43089;DHT22;28709;52.030;5.652;2022-08-21T09:02:34;23.30;99.90
43089;DHT22;28709;52.030;5.652;2022-08-21T09:05:00;23.50;99.90
43089;DHT22;28709;52.030;5.652;2022-08-21T09:10:29;23.90;99.90
43089;DHT22;28709;52.030;5.652;2022-08-21T09:13:30;24.00;99.90
43089;DHT22;28709;52.030;5.652;2022-08-21T09:21:18;24.30;99.90
43089;DHT22;28709;52.030;5.652;2022-08-21T09:24:02;24.30;99.90
43089;DHT22;28709;52.030;5.652;2022-08-21T09:29:32;24.20;99.90
43089;DHT22;28709;52.030;5.652;2022-08-21T09:31:58;24.40;99.90
43089;DHT22;28709;52.030;5.652;2022-08-21T09:34:28;24.40;99.60
43089;DHT22;28709;52.030;5.652;2022-08-21T09:36:55;24.60;99.60
43089;DHT22;28709;52.030;5.652;2022-08-21T09:39:36;24.80;99.10
43089;DHT22;28709;52.030;5.652;2022-08-21T09:42:08;25.10;99.20
43089;DHT22;28709;52.030;5.652;2022-08-21T09:44:37;25.40;97.90
43089;DHT22;28709;52.030;5.652;2022-08-21T09:47:09;25.30;97.00
43089;DHT22;28709;52.030;5.652;2022-08-21T09:49:38;25.20;97.00
43089;DHT22;28709;52.030;5.652;2022-08-21T09:52:19;25.00;96.70
43089;DHT22;28709;52.030;5.652;2022-08-21T09:54:54;24.80;96.60
43089;DHT22;28709;52.030;5.652;2022-08-21T09:57:30;24.70;97.10
43089;DHT22;28709;52.030;5.652;2022-08-21T10:00:20;24.80;96.60
43089;DHT22;28709;52.030;5.652;2022-08-21T10:02:49;25.00;96.20
43089;DHT22;28709;52.030;5.652;2022-08-21T10:05:24;25.10;95.90
43089;DHT22;28709;52.030;5.652;2022-08-21T10:07:50;25.30;95.70
43089;DHT22;28709;52.030;5.652;2022-08-21T10:10:25;25.30;95.20
43089;DHT22;28709;52.030;5.652;2022-08-21T10:13:10;25.20;94.90
43089;DHT22;28709;52.030;5.652;2022-08-21T10:18:38;25.30;94.90
43089;DHT22;28709;52.030;5.652;2022-08-21T10:29:50;25.80;94.80
43089;DHT22;28709;52.030;5.652;2022-08-21T10:35:26;25.40;94.70
43089;DHT22;28709;52.030;5.652;2022-08-21T10:41:09;25.20;94.30
43089;DHT22;28709;52.030;5.652;2022-08-21T10:43:59;25.30;94.30
43089;DHT22;28709;52.030;5.652;2022-08-21T10:46:50;25.50;94.50
43089;DHT22;28709;52.030;5.652;2022-08-21T10:49:35;25.80;93.70
43089;DHT22;28709;52.030;5.652;2022-08-21T10:52:25;25.90;93.20
43089;DHT22;28709;52.030;5.652;2022-08-21T10:55:14;26.00;93.30
43089;DHT22;28709;52.030;5.652;2022-08-21T10:57:52;26.10;93.40
43089;DHT22;28709;52.030;5.652;2022-08-21T11:00:22;26.10;93.30
43089;DHT22;28709;52.030;5.652;2022-08-21T11:03:02;26.00;92.80
43089;DHT22;28709;52.030;5.652;2022-08-21T11:05:38;26.00;93.30
43089;DHT22;28709;52.030;5.652;2022-08-21T11:08:26;26.20;92.30
43089;DHT22;28709;52.030;5.652;2022-08-21T11:11:02;26.20;91.70
43089;DHT22;28709;52.030;5.652;2022-08-21T11:16:07;26.20;92.10
43089;DHT22;28709;52.030;5.652;2022-08-21T11:18:43;26.40;92.40
43089;DHT22;28709;52.030;5.652;2022-08-21T11:22:07;26.60;91.70
43089;DHT22;28709;52.030;5.652;2022-08-21T11:24:29;26.70;91.20
43089;DHT22;28709;52.030;5.652;2022-08-21T11:29:38;27.10;90.80
43089;DHT22;28709;52.030;5.652;2022-08-21T11:35:08;27.20;90.40
43089;DHT22;28709;52.030;5.652;2022-08-21T11:38:05;27.30;89.00
43089;DHT22;28709;52.030;5.652;2022-08-21T11:43:47;27.50;87.70
43089;DHT22;28709;52.030;5.652;2022-08-21T11:46:31;27.40;87.70
43089;DHT22;28709;52.030;5.652;2022-08-21T11:54:42;27.40;87.70
43089;DHT22;28709;52.030;5.652;2022-08-21T12:02:22;26.50;89.70
43089;DHT22;28709;52.030;5.652;2022-08-21T12:04:59;26.60;88.90
43089;DHT22;28709;52.030;5.652;2022-08-21T12:07:44;26.80;87.80
43089;DHT22;28709;52.030;5.652;2022-08-21T12:10:14;26.60;87.60
43089;DHT22;28709;52.030;5.652;2022-08-21T12:12:42;26.40;87.80
43089;DHT22;28709;52.030;5.652;2022-08-21T12:25:41;25.50;88.80
43089;DHT22;28709;52.030;5.652;2022-08-21T12:28:10;25.60;88.80
43089;DHT22;28709;52.030;5.652;2022-08-21T12:30:41;25.80;89.00
43089;DHT22;28709;52.030;5.652;2022-08-21T12:35:47;26.40;85.60
43089;DHT22;28709;52.030;5.652;2022-08-21T12:40:55;26.90;86.80
43089;DHT22;28709;52.030;5.652;2022-08-21T12:43:31;27.10;84.40
43089;DHT22;28709;52.030;5.652;2022-08-21T12:45:59;27.20;84.30
43089;DHT22;28709;52.030;5.652;2022-08-21T12:48:45;27.40;83.80
43089;DHT22;28709;52.030;5.652;2022-08-21T12:53:51;27.00;82.60
43089;DHT22;28709;52.030;5.652;2022-08-21T12:56:22;26.80;83.10
43089;DHT22;28709;52.030;5.652;2022-08-21T12:59:01;26.90;82.40
43089;DHT22;28709;52.030;5.652;2022-08-21T13:04:06;27.10;83.10
43089;DHT22;28709;52.030;5.652;2022-08-21T13:06:37;27.00;82.30
43089;DHT22;28709;52.030;5.652;2022-08-21T13:09:08;27.00;82.70
43089;DHT22;28709;52.030;5.652;2022-08-21T13:11:36;26.70;82.40
43089;DHT22;28709;52.030;5.652;2022-08-21T13:14:03;26.50;83.60
43089;DHT22;28709;52.030;5.652;2022-08-21T13:16:29;26.60;83.10
43089;DHT22;28709;52.030;5.652;2022-08-21T13:19:00;26.60;83.50
43089;DHT22;28709;52.030;5.652;2022-08-21T13:21:41;26.70;82.00
43089;DHT22;28709;52.030;5.652;2022-08-21T13:26:44;27.10;81.80
43089;DHT22;28709;52.030;5.652;2022-08-21T13:29:12;27.10;81.80
43089;DHT22;28709;52.030;5.652;2022-08-21T13:31:40;27.10;80.90
43089;DHT22;28709;52.030;5.652;2022-08-21T13:34:09;27.10;80.90
43089;DHT22;28709;52.030;5.652;2022-08-21T13:36:39;27.10;81.60
43089;DHT22;28709;52.030;5.652;2022-08-21T13:39:08;27.30;80.70
43089;DHT22;28709;52.030;5.652;2022-08-21T13:41:36;27.50;79.20
43089;DHT22;28709;52.030;5.652;2022-08-21T13:44:05;27.40;77.80
43089;DHT22;28709;52.030;5.652;2022-08-21T13:46:33;27.10;77.70
43089;DHT22;28709;52.030;5.652;2022-08-21T13:49:00;26.90;79.20
43089;DHT22;28709;52.030;5.652;2022-08-21T13:51:28;27.00;79.90
43089;DHT22;28709;52.030;5.652;2022-08-21T13:53:54;27.10;78.50
43089;DHT22;28709;52.030;5.652;2022-08-21T13:56:43;27.20;79.40
43089;DHT22;28709;52.030;5.652;2022-08-21T13:59:09;27.10;79.30
43089;DHT22;28709;52.030;5.652;2022-08-21T14:01:57;26.90;80.10
43089;DHT22;28709;52.030;5.652;2022-08-21T14:04:37;26.90;80.80
43089;DHT22;28709;52.030;5.652;2022-08-21T14:07:15;26.90;79.40
43089;DHT22;28709;52.030;5.652;2022-08-21T14:09:43;26.80;80.10
43089;DHT22;28709;52.030;5.652;2022-08-21T14:12:28;26.90;80.60
43089;DHT22;28709;52.030;5.652;2022-08-21T14:14:56;26.90;79.40
43089;DHT22;28709;52.030;5.652;2022-08-21T14:17:28;26.70;79.80
43089;DHT22;28709;52.030;5.652;2022-08-21T14:19:54;26.70;79.40
43089;DHT22;28709;52.030;5.652;2022-08-21T14:22:41;26.60;79.80
43089;DHT22;28709;52.030;5.652;2022-08-21T14:25:30;26.50;81.00
43089;DHT22;28709;52.030;5.652;2022-08-21T14:28:09;26.50;79.90
43089;DHT22;28709;52.030;5.652;2022-08-21T14:30:39;26.40;80.20
43089;DHT22;28709;52.030;5.652;2022-08-21T14:33:10;26.30;79.00
43089;DHT22;28709;52.030;5.652;2022-08-21T14:35:37;26.10;79.70
43089;DHT22;28709;52.030;5.652;2022-08-21T14:38:14;26.10;79.80
43089;DHT22;28709;52.030;5.652;2022-08-21T14:40:40;26.10;80.10
43089;DHT22;28709;52.030;5.652;2022-08-21T14:43:07;26.20;80.50
43089;DHT22;28709;52.030;5.652;2022-08-21T14:45:34;26.20;80.50
43089;DHT22;28709;52.030;5.652;2022-08-21T14:48:02;26.20;79.80
43089;DHT22;28709;52.030;5.652;2022-08-21T14:50:28;26.20;80.30
43089;DHT22;28709;52.030;5.652;2022-08-21T14:52:54;26.10;80.30
43089;DHT22;28709;52.030;5.652;2022-08-21T14:55:20;26.00;80.90
43089;DHT22;28709;52.030;5.652;2022-08-21T14:57:48;26.00;80.80
43089;DHT22;28709;52.030;5.652;2022-08-21T15:00:17;26.00;80.10
43089;DHT22;28709;52.030;5.652;2022-08-21T15:02:43;26.10;79.90
43089;DHT22;28709;52.030;5.652;2022-08-21T15:05:09;26.10;79.00
43089;DHT22;28709;52.030;5.652;2022-08-21T15:07:35;26.10;79.30
43089;DHT22;28709;52.030;5.652;2022-08-21T15:10:02;26.10;79.50
43089;DHT22;28709;52.030;5.652;2022-08-21T15:12:28;26.10;79.30
43089;DHT22;28709;52.030;5.652;2022-08-21T15:14:54;25.90;79.30
43089;DHT22;28709;52.030;5.652;2022-08-21T15:17:20;25.90;79.70
43089;DHT22;28709;52.030;5.652;2022-08-21T15:19:45;25.70;80.30
43089;DHT22;28709;52.030;5.652;2022-08-21T15:22:11;25.60;80.30
43089;DHT22;28709;52.030;5.652;2022-08-21T15:24:37;25.50;80.60
43089;DHT22;28709;52.030;5.652;2022-08-21T15:27:04;25.50;80.40
43089;DHT22;28709;52.030;5.652;2022-08-21T15:29:32;25.40;80.10
43089;DHT22;28709;52.030;5.652;2022-08-21T15:32:00;25.20;80.60
43089;DHT22;28709;52.030;5.652;2022-08-21T15:34:28;25.20;80.90
43089;DHT22;28709;52.030;5.652;2022-08-21T15:36:56;25.10;81.00
43089;DHT22;28709;52.030;5.652;2022-08-21T15:39:21;25.10;81.50
43089;DHT22;28709;52.030;5.652;2022-08-21T15:41:47;25.00;81.70
43089;DHT22;28709;52.030;5.652;2022-08-21T15:44:14;24.90;81.80
43089;DHT22;28709;52.030;5.652;2022-08-21T15:46:40;24.70;82.20
43089;DHT22;28709;52.030;5.652;2022-08-21T15:49:07;24.70;83.00
43089;DHT22;28709;52.030;5.652;2022-08-21T15:51:33;24.80;82.50
43089;DHT22;28709;52.030;5.652;2022-08-21T15:53:59;24.80;82.10
43089;DHT22;28709;52.030;5.652;2022-08-21T15:56:36;24.60;82.70
43089;DHT22;28709;52.030;5.652;2022-08-21T15:59:07;24.60;83.10
43089;DHT22;28709;52.030;5.652;2022-08-21T16:01:35;24.50;83.60
43089;DHT22;28709;52.030;5.652;2022-08-21T16:04:02;24.40;83.90
43089;DHT22;28709;52.030;5.652;2022-08-21T16:06:28;24.40;84.00
43089;DHT22;28709;52.030;5.652;2022-08-21T16:08:53;24.40;83.70
43089;DHT22;28709;52.030;5.652;2022-08-21T16:11:19;24.30;83.80
43089;DHT22;28709;52.030;5.652;2022-08-21T16:13:46;24.40;84.10
43089;DHT22;28709;52.030;5.652;2022-08-21T16:16:16;24.30;83.90
43089;DHT22;28709;52.030;5.652;2022-08-21T16:18:42;24.40;83.80
43089;DHT22;28709;52.030;5.652;2022-08-21T16:21:08;24.40;84.10
43089;DHT22;28709;52.030;5.652;2022-08-21T16:23:34;24.40;83.60
43089;DHT22;28709;52.030;5.652;2022-08-21T16:26:02;24.40;83.90
43089;DHT22;28709;52.030;5.652;2022-08-21T16:28:30;24.40;83.90
43089;DHT22;28709;52.030;5.652;2022-08-21T16:30:56;24.30;82.90
43089;DHT22;28709;52.030;5.652;2022-08-21T16:33:29;24.20;83.40
43089;DHT22;28709;52.030;5.652;2022-08-21T16:35:55;24.20;83.90
43089;DHT22;28709;52.030;5.652;2022-08-21T16:38:21;24.20;83.90
43089;DHT22;28709;52.030;5.652;2022-08-21T16:40:47;24.10;84.50
43089;DHT22;28709;52.030;5.652;2022-08-21T16:43:12;24.10;84.80
43089;DHT22;28709;52.030;5.652;2022-08-21T16:45:42;24.10;85.20
43089;DHT22;28709;52.030;5.652;2022-08-21T16:48:08;24.10;84.90
43089;DHT22;28709;52.030;5.652;2022-08-21T16:50:35;24.10;84.90
43089;DHT22;28709;52.030;5.652;2022-08-21T16:53:02;24.00;84.60
43089;DHT22;28709;52.030;5.652;2022-08-21T16:55:28;24.00;84.60
43089;DHT22;28709;52.030;5.652;2022-08-21T16:57:54;24.00;84.60
43089;DHT22;28709;52.030;5.652;2022-08-21T17:00:20;23.90;84.80
43089;DHT22;28709;52.030;5.652;2022-08-21T17:02:48;23.90;84.90